createdAt,value
2022-11-20T00:01:27.568Z,7.20
2022-11-20T00:03:56.497Z,7.20
2022-11-20T00:06:24.837Z,7.20
2022-11-20T00:08:52.229Z,7.20
2022-11-20T00:11:24.954Z,7.20
2022-11-20T00:13:55.292Z,7.20
2022-11-20T00:16:25.905Z,7.20
2022-11-20T00:18:53.385Z,7.20
2022-11-20T00:21:27.155Z,7.20
2022-11-20T00:23:56.577Z,7.10
2022-11-20T00:26:26.510Z,7.20
2022-11-20T00:28:56.879Z,7.10
2022-11-20T00:31:24.563Z,7.20
2022-11-20T00:36:27.799Z,8.00
2022-11-20T00:38:57.535Z,7.10
2022-11-20T00:41:25.834Z,7.30
2022-11-20T00:43:54.349Z,7.00
2022-11-20T00:46:24.632Z,7.20
2022-11-20T00:51:22.176Z,7.20
2022-11-20T00:56:19.279Z,7.10
2022-11-20T00:58:48.555Z,7.20
2022-11-20T01:01:27.868Z,7.10
2022-11-20T01:03:58.414Z,7.20
2022-11-20T01:06:32.630Z,7.00
2022-11-20T01:09:04.826Z,6.60
2022-11-20T01:11:34.145Z,6.90
2022-11-20T01:14:04.139Z,7.30
2022-11-20T01:16:37.549Z,7.20
2022-11-20T01:19:10.601Z,7.10
2022-11-20T01:21:40.649Z,7.10
2022-11-20T01:24:11.587Z,7.10
2022-11-20T01:26:41.412Z,7.20
2022-11-20T01:29:24.327Z,7.10
2022-11-20T01:31:52.713Z,7.10
2022-11-20T01:34:23.103Z,7.10
2022-11-20T01:36:51.806Z,7.10
2022-11-20T01:39:23.156Z,5.50
2022-11-20T01:42:12.063Z,6.90
2022-11-20T01:44:57.810Z,7.00
2022-11-20T01:50:20.350Z,6.80
2022-11-20T01:52:59.090Z,7.50
2022-11-20T01:55:32.002Z,7.10
2022-11-20T01:57:59.894Z,7.10
2022-11-20T02:00:26.805Z,6.90
2022-11-20T02:03:00.048Z,6.90
2022-11-20T02:05:35.151Z,7.00
2022-11-20T02:08:05.603Z,7.20
2022-11-20T02:10:32.937Z,7.10
2022-11-20T02:13:19.034Z,7.00
2022-11-20T02:15:46.773Z,7.00
2022-11-20T02:18:17.376Z,6.80
2022-11-20T02:20:46.840Z,7.20
2022-11-20T02:23:28.233Z,7.10
2022-11-20T02:25:56.816Z,7.20
2022-11-20T02:28:24.299Z,7.00
2022-11-20T02:30:51.180Z,6.50
2022-11-20T02:33:18.038Z,6.70
2022-11-20T02:35:47.712Z,7.00
2022-11-20T02:38:15.470Z,7.00
2022-11-20T02:40:42.818Z,6.80
2022-11-20T02:43:10.378Z,6.90
2022-11-20T02:45:37.889Z,7.20
2022-11-20T02:48:06.286Z,6.80
2022-11-20T02:50:33.171Z,6.60
2022-11-20T02:53:00.014Z,6.60
2022-11-20T02:55:26.970Z,6.60
2022-11-20T02:57:53.866Z,6.70
2022-11-20T03:00:20.887Z,6.30
2022-11-20T03:02:47.786Z,6.70
2022-11-20T03:05:16.998Z,6.50
2022-11-20T03:07:45.165Z,6.40
2022-11-20T03:10:12.326Z,6.50
2022-11-20T03:12:39.235Z,6.50
2022-11-20T03:15:06.724Z,6.20
2022-11-20T03:17:33.621Z,6.30
2022-11-20T03:20:00.618Z,6.00
2022-11-20T03:22:30.946Z,6.30
2022-11-20T03:24:57.999Z,5.60
2022-11-20T03:27:24.987Z,6.10
2022-11-20T03:29:51.892Z,6.10
2022-11-20T03:32:18.774Z,6.70
2022-11-20T03:34:45.688Z,6.90
2022-11-20T03:37:12.553Z,6.80
2022-11-20T03:39:39.419Z,6.40
2022-11-20T03:42:26.262Z,6.40
2022-11-20T03:44:53.125Z,6.40
2022-11-20T03:47:20.051Z,6.50
2022-11-20T03:49:46.915Z,6.50
2022-11-20T03:52:13.790Z,6.50
2022-11-20T03:54:40.682Z,6.50
2022-11-20T03:57:07.575Z,6.20
2022-11-20T03:59:34.478Z,6.40
2022-11-20T04:02:01.407Z,6.50
2022-11-20T04:04:28.294Z,6.40
2022-11-20T04:06:55.166Z,6.40
2022-11-20T04:11:49.784Z,6.10
2022-11-20T04:14:17.455Z,6.20
2022-11-20T04:16:44.777Z,6.20
2022-11-20T04:19:16.995Z,6.40
2022-11-20T04:21:44.940Z,6.30
2022-11-20T04:24:12.054Z,6.80
2022-11-20T04:26:39.526Z,6.30
2022-11-20T04:29:06.602Z,6.40
2022-11-20T04:31:35.985Z,6.30
2022-11-20T04:34:05.754Z,6.20
2022-11-20T04:36:34.088Z,7.70
2022-11-20T04:39:04.844Z,6.20
2022-11-20T04:41:35.647Z,6.10
2022-11-20T04:44:04.961Z,8.00
2022-11-20T04:46:41.243Z,6.20
2022-11-20T04:49:08.713Z,6.30
2022-11-20T04:51:36.110Z,6.30
2022-11-20T04:54:03.160Z,6.30
2022-11-20T04:56:30.075Z,6.30
2022-11-20T04:59:01.163Z,6.40
2022-11-20T05:01:28.087Z,6.40
2022-11-20T05:03:55.142Z,6.10
2022-11-20T05:06:22.952Z,6.30
2022-11-20T05:11:20.751Z,8.30
2022-11-20T05:13:48.323Z,6.20
2022-11-20T05:16:19.468Z,6.30
2022-11-20T05:18:46.846Z,6.30
2022-11-20T05:21:14.460Z,6.20
2022-11-20T05:23:42.538Z,5.70
2022-11-20T05:26:15.465Z,6.10
2022-11-20T05:28:42.382Z,5.80
2022-11-20T05:31:15.474Z,6.20
2022-11-20T05:33:44.359Z,5.80
2022-11-20T05:36:13.899Z,6.30
2022-11-20T05:38:41.354Z,6.20
2022-11-20T05:41:20.301Z,6.20
2022-11-20T05:43:49.112Z,6.10
2022-11-20T05:46:24.993Z,6.20
2022-11-20T05:48:53.531Z,6.30
2022-11-20T05:51:20.541Z,6.10
2022-11-20T05:53:48.673Z,5.90
2022-11-20T05:56:21.944Z,6.20
2022-11-20T05:58:49.636Z,6.20
2022-11-20T06:01:24.432Z,6.20
2022-11-20T06:03:52.209Z,6.50
2022-11-20T06:06:20.356Z,6.30
2022-11-20T06:08:47.460Z,6.00
2022-11-20T06:11:15.729Z,6.20
2022-11-20T06:13:43.036Z,6.20
2022-11-20T06:16:12.179Z,6.10
2022-11-20T06:18:39.710Z,6.20
2022-11-20T06:21:10.107Z,6.10
2022-11-20T06:23:38.339Z,6.30
2022-11-20T06:26:08.629Z,6.20
2022-11-20T06:28:36.175Z,6.40
2022-11-20T06:31:03.633Z,5.80
2022-11-20T06:33:30.906Z,6.00
2022-11-20T06:36:03.421Z,5.60
2022-11-20T06:38:32.950Z,7.00
2022-11-20T06:40:59.937Z,6.30
2022-11-20T06:43:27.018Z,6.40
2022-11-20T06:45:54.946Z,4.80
2022-11-20T06:48:23.440Z,6.50
2022-11-20T06:50:50.678Z,6.30
2022-11-20T06:53:17.664Z,6.20
2022-11-20T06:55:46.445Z,6.30
2022-11-20T06:58:15.046Z,6.20
2022-11-20T07:00:42.725Z,5.80
2022-11-20T07:03:12.820Z,6.30
2022-11-20T07:05:40.887Z,5.70
2022-11-20T07:08:08.897Z,6.30
2022-11-20T07:10:36.309Z,6.30
2022-11-20T07:13:03.359Z,6.20
2022-11-20T07:15:30.820Z,6.20
2022-11-20T07:18:01.126Z,6.70
2022-11-20T07:20:28.638Z,6.30
2022-11-20T07:22:56.991Z,6.20
2022-11-20T07:25:27.545Z,6.40
2022-11-20T07:27:59.368Z,6.30
2022-11-20T07:30:27.657Z,6.10
2022-11-20T07:32:56.341Z,6.50
2022-11-20T07:40:20.616Z,6.20
2022-11-20T07:42:55.155Z,6.40
2022-11-20T07:45:24.294Z,6.00
2022-11-20T07:47:51.985Z,7.40
2022-11-20T07:55:14.900Z,6.50
2022-11-20T07:57:41.872Z,6.40
2022-11-20T08:00:11.739Z,6.40
2022-11-20T08:02:42.196Z,6.40
2022-11-20T08:05:12.206Z,6.20
2022-11-20T08:07:40.857Z,6.30
2022-11-20T08:10:10.439Z,6.20
2022-11-20T08:12:56.204Z,5.50
2022-11-20T08:15:23.206Z,6.20
2022-11-20T08:18:15.506Z,6.20
2022-11-20T08:20:36.995Z,6.30
2022-11-20T08:23:06.730Z,6.30
2022-11-20T08:25:36.225Z,6.10
2022-11-20T08:28:19.864Z,7.30
2022-11-20T08:30:47.628Z,6.60
2022-11-20T08:33:15.003Z,6.20
2022-11-20T08:35:42.652Z,6.70
2022-11-20T08:40:37.583Z,6.20
2022-11-20T08:43:07.671Z,6.30
2022-11-20T08:45:35.410Z,6.60
2022-11-20T08:48:04.295Z,6.00
2022-11-20T08:50:32.993Z,6.50
2022-11-20T08:53:07.485Z,6.00
2022-11-20T08:58:05.963Z,6.30
2022-11-20T09:03:03.192Z,6.10
2022-11-20T09:05:30.678Z,6.30
2022-11-20T09:07:58.990Z,6.20
2022-11-20T09:10:26.974Z,6.20
2022-11-20T09:12:55.979Z,6.90
2022-11-20T09:20:31.085Z,7.70
2022-11-20T09:22:58.688Z,6.40
2022-11-20T09:25:26.219Z,6.50
2022-11-20T09:27:58.120Z,7.40
2022-11-20T09:30:25.317Z,6.50
2022-11-20T09:37:47.833Z,5.60
2022-11-20T09:40:30.450Z,6.50
2022-11-20T09:43:34.921Z,6.60
2022-11-20T09:46:34.752Z,6.60
2022-11-20T09:52:21.913Z,6.50
2022-11-20T09:54:49.565Z,6.50
2022-11-20T09:57:23.058Z,6.50
2022-11-20T10:00:03.997Z,6.60
2022-11-20T10:02:46.297Z,6.80
2022-11-20T10:05:22.362Z,6.50
2022-11-20T10:08:17.379Z,6.40
2022-11-20T10:11:02.424Z,6.70
2022-11-20T10:14:26.116Z,6.20
2022-11-20T10:17:11.174Z,6.60
2022-11-20T10:20:15.781Z,6.80
2022-11-20T10:23:06.694Z,6.70
2022-11-20T10:25:45.582Z,6.00
2022-11-20T10:28:58.753Z,6.70
2022-11-20T10:31:38.793Z,6.60
2022-11-20T10:34:24.854Z,6.70
2022-11-20T10:37:23.906Z,6.40
2022-11-20T10:40:18.948Z,6.70
2022-11-20T10:43:12.329Z,6.60
2022-11-20T10:45:48.457Z,6.50
2022-11-20T10:48:34.224Z,6.50
2022-11-20T10:51:46.173Z,6.50
2022-11-20T10:54:34.918Z,7.20
2022-11-20T10:57:41.884Z,6.40
2022-11-20T11:03:14.333Z,7.30
2022-11-20T11:05:55.222Z,6.70
2022-11-20T11:08:23.019Z,6.60
2022-11-20T11:11:06.751Z,6.60
2022-11-20T11:14:15.157Z,6.60
2022-11-20T11:16:59.093Z,6.60
2022-11-20T11:19:26.348Z,6.40
2022-11-20T11:21:57.406Z,7.60
2022-11-20T11:24:45.993Z,6.20
2022-11-20T11:27:18.449Z,6.60
2022-11-20T11:29:46.851Z,6.80
2022-11-20T11:32:21.601Z,6.60
2022-11-20T11:35:07.445Z,6.50
2022-11-20T11:37:37.590Z,6.60
2022-11-20T11:43:00.804Z,6.40
2022-11-20T11:45:28.154Z,5.50
2022-11-20T11:47:58.862Z,6.70
2022-11-20T11:50:28.510Z,6.60
2022-11-20T11:53:14.102Z,7.00
2022-11-20T11:55:55.499Z,7.40
2022-11-20T11:58:54.853Z,7.90
2022-11-20T12:01:30.452Z,7.70
2022-11-20T12:04:45.042Z,7.60
2022-11-20T12:07:49.682Z,7.70
2022-11-20T12:10:46.389Z,7.40
2022-11-20T12:13:54.324Z,7.50
2022-11-20T12:16:22.028Z,9.00
2022-11-20T12:18:53.823Z,7.20
2022-11-20T12:21:40.188Z,6.70
2022-11-20T12:24:34.276Z,7.40
2022-11-20T12:27:31.240Z,7.30
2022-11-20T12:30:13.599Z,7.30
2022-11-20T12:32:58.669Z,7.40
2022-11-20T12:35:57.582Z,7.30
2022-11-20T12:38:47.981Z,7.10
2022-11-20T12:42:14.954Z,7.40
2022-11-20T12:45:15.953Z,6.60
2022-11-20T12:47:57.250Z,7.50
2022-11-20T12:51:20.063Z,7.50
2022-11-20T12:57:12.574Z,6.60
2022-11-20T13:03:33.476Z,7.70
2022-11-20T13:06:18.576Z,7.70
2022-11-20T13:08:59.703Z,8.10
2022-11-20T13:14:29.690Z,7.80
2022-11-20T13:19:59.606Z,7.30
2022-11-20T13:22:46.847Z,8.10
2022-11-20T13:25:35.498Z,8.30
2022-11-20T13:28:22.684Z,8.30
2022-11-20T13:30:55.109Z,8.00
2022-11-20T13:33:39.288Z,7.10
2022-11-20T13:36:27.005Z,7.90
2022-11-20T13:38:56.317Z,7.90
2022-11-20T13:41:36.181Z,7.80
2022-11-20T13:44:28.335Z,7.70
2022-11-20T13:46:55.278Z,7.80
2022-11-20T13:49:31.881Z,7.70
2022-11-20T13:52:40.421Z,7.50
2022-11-20T13:56:00.945Z,8.10
2022-11-20T13:59:05.353Z,7.70
2022-11-20T14:01:33.309Z,7.80
2022-11-20T14:04:07.615Z,7.90
2022-11-20T14:06:43.436Z,8.00
2022-11-20T14:09:26.581Z,7.90
2022-11-20T14:14:30.191Z,7.80
2022-11-20T14:17:08.610Z,7.70
2022-11-20T14:22:10.586Z,7.20
2022-11-20T14:24:38.445Z,7.60
2022-11-20T14:27:05.486Z,7.60
2022-11-20T14:29:38.479Z,7.60
2022-11-20T14:34:39.641Z,7.60
2022-11-20T14:39:55.258Z,7.70
2022-11-20T14:42:26.523Z,7.60
2022-11-20T14:44:57.809Z,7.60
2022-11-20T14:47:31.719Z,7.60
2022-11-20T14:50:02.611Z,7.50
2022-11-20T14:52:31.990Z,7.60
2022-11-20T14:55:02.671Z,6.70
2022-11-20T14:57:35.659Z,7.60
2022-11-20T15:00:30.456Z,7.40
2022-11-20T15:05:45.881Z,7.50
2022-11-20T15:08:14.493Z,7.20
2022-11-20T15:10:49.402Z,7.50
2022-11-20T15:13:23.459Z,7.20
2022-11-20T15:15:53.608Z,7.30
2022-11-20T15:18:33.851Z,7.00
2022-11-20T15:21:10.155Z,7.40
2022-11-20T15:23:37.114Z,7.30
2022-11-20T15:26:06.977Z,7.20
2022-11-20T15:28:48.726Z,7.30
2022-11-20T15:31:19.791Z,7.30
2022-11-20T15:33:46.928Z,7.40
2022-11-20T15:36:13.996Z,7.40
2022-11-20T15:38:41.311Z,7.40
2022-11-20T15:41:08.868Z,7.20
2022-11-20T15:43:36.103Z,7.10
2022-11-20T15:46:18.440Z,7.00
2022-11-20T15:48:55.589Z,6.70
2022-11-20T15:58:48.109Z,7.30
2022-11-20T16:01:18.935Z,7.20
2022-11-20T16:16:31.081Z,8.30
2022-11-20T16:21:31.795Z,7.10
2022-11-20T16:24:04.335Z,7.70
2022-11-20T16:29:04.776Z,6.30
2022-11-20T16:34:11.915Z,6.60
2022-11-20T16:36:45.712Z,6.90
2022-11-20T16:39:23.611Z,7.50
2022-11-20T16:41:54.556Z,7.10
2022-11-20T17:04:18.319Z,6.90
2022-11-20T17:06:45.330Z,7.30
2022-11-20T17:09:13.117Z,7.00
2022-11-20T17:11:40.549Z,6.90
2022-11-20T17:16:38.192Z,7.00
2022-11-20T17:21:36.092Z,6.90
2022-11-20T17:24:06.272Z,7.20
2022-11-20T17:26:34.688Z,7.00
2022-11-20T17:29:09.976Z,6.80
2022-11-20T17:31:40.555Z,7.00
2022-11-20T17:34:11.785Z,7.00
2022-11-20T17:36:45.061Z,7.00
2022-11-20T17:39:16.823Z,7.20
2022-11-20T17:41:44.865Z,6.90
2022-11-20T17:44:13.380Z,6.80
2022-11-20T17:46:40.558Z,7.90
2022-11-20T17:49:07.519Z,6.90
2022-11-20T17:51:35.660Z,7.00
2022-11-20T17:54:05.431Z,7.20
2022-11-20T17:56:53.114Z,6.90
2022-11-20T17:59:20.546Z,6.60
2022-11-20T18:01:48.182Z,7.00
2022-11-20T18:04:15.367Z,7.00
2022-11-20T18:09:10.271Z,6.90
2022-11-20T18:11:42.254Z,7.00
2022-11-20T18:14:32.108Z,7.00
2022-11-20T18:17:08.163Z,6.80
2022-11-20T18:19:44.948Z,7.00
2022-11-20T18:22:19.746Z,6.90
2022-11-20T18:24:46.807Z,6.80
2022-11-20T18:27:20.608Z,7.70
2022-11-20T18:29:51.733Z,7.20
2022-11-20T18:32:23.086Z,7.10
2022-11-20T18:34:51.311Z,6.80
2022-11-20T18:37:18.547Z,6.90
2022-11-20T18:39:45.550Z,6.50
2022-11-20T18:45:01.332Z,7.00
2022-11-20T18:47:31.870Z,7.00
2022-11-20T18:50:01.012Z,6.80
2022-11-20T18:52:33.693Z,7.00
2022-11-20T18:55:02.746Z,6.80
2022-11-20T18:57:30.230Z,6.80
2022-11-20T19:00:05.046Z,6.70
2022-11-20T19:05:20.915Z,7.00
2022-11-20T19:07:48.205Z,6.50
2022-11-20T19:10:20.271Z,6.40
2022-11-20T19:12:47.514Z,6.60
2022-11-20T19:15:14.456Z,6.40
2022-11-20T19:17:41.395Z,6.60
2022-11-20T19:20:08.637Z,6.10
2022-11-20T19:22:35.536Z,5.90
2022-11-20T19:25:02.479Z,6.10
2022-11-20T19:30:03.090Z,6.50
2022-11-20T19:32:30.372Z,6.00
2022-11-20T19:34:57.301Z,5.90
2022-11-20T19:37:25.281Z,5.90
2022-11-20T19:39:52.246Z,6.10
2022-11-20T19:42:19.226Z,6.10
2022-11-20T19:44:46.149Z,6.00
2022-11-20T19:47:14.699Z,5.90
2022-11-20T19:49:42.045Z,6.00
2022-11-20T19:54:38.425Z,6.20
2022-11-20T19:57:05.778Z,4.30
2022-11-20T19:59:32.787Z,7.50
2022-11-20T20:02:02.015Z,7.10
2022-11-20T20:06:56.442Z,6.30
2022-11-20T20:09:23.911Z,5.90
2022-11-20T20:11:50.994Z,6.30
2022-11-20T20:14:18.385Z,6.30
2022-11-20T20:19:16.328Z,6.10
2022-11-20T20:21:43.855Z,6.00
2022-11-20T20:24:12.220Z,6.10
2022-11-20T20:26:39.466Z,6.00
2022-11-20T20:29:06.407Z,6.50
2022-11-20T20:34:03.199Z,5.90
2022-11-20T20:36:30.240Z,6.40
2022-11-20T20:39:04.683Z,5.80
2022-11-20T20:41:32.075Z,6.00
2022-11-20T20:46:44.995Z,6.10
2022-11-20T20:49:12.006Z,5.80
2022-11-20T20:51:39.087Z,5.90
2022-11-20T20:56:33.491Z,5.80
2022-11-20T20:59:00.492Z,5.90
2022-11-20T21:01:30.552Z,5.90
2022-11-20T21:03:58.235Z,6.10
2022-11-20T21:16:22.354Z,6.00
2022-11-20T21:18:49.333Z,5.90
2022-11-20T21:21:36.145Z,6.00
2022-11-20T21:24:03.851Z,6.00
2022-11-20T21:26:30.834Z,6.00
2022-11-20T21:28:58.084Z,6.80
2022-11-20T21:31:26.778Z,6.00
2022-11-20T21:33:56.283Z,5.90
2022-11-20T21:36:26.838Z,6.00
2022-11-20T21:38:55.410Z,6.00
2022-11-20T21:41:24.944Z,6.80
2022-11-20T21:44:23.662Z,5.90
2022-11-20T21:46:45.303Z,5.90
2022-11-20T21:49:14.455Z,5.60
2022-11-20T21:54:11.755Z,6.00
2022-11-20T21:56:38.881Z,6.10
2022-11-20T22:01:33.251Z,5.80
2022-11-20T22:04:02.740Z,6.80
2022-11-20T22:06:34.780Z,5.40
2022-11-20T22:09:03.200Z,5.40
2022-11-20T22:11:30.614Z,5.60
2022-11-20T22:14:16.421Z,5.50
2022-11-20T22:16:43.420Z,5.50
2022-11-20T22:21:39.988Z,5.60
2022-11-20T22:24:07.308Z,5.50
2022-11-20T22:26:40.008Z,6.10
2022-11-20T22:31:34.991Z,5.60
2022-11-20T22:34:02.731Z,5.60
2022-11-20T22:36:31.343Z,5.60
2022-11-20T22:41:28.456Z,6.80
2022-11-20T22:43:58.225Z,5.60
2022-11-20T22:46:28.364Z,5.60
2022-11-20T22:49:01.661Z,5.70
2022-11-20T22:51:35.180Z,5.70
2022-11-20T23:01:27.402Z,6.30
2022-11-20T23:04:00.405Z,5.70
2022-11-20T23:09:01.279Z,5.80
2022-11-20T23:11:32.312Z,7.80
2022-11-20T23:14:04.737Z,5.70
2022-11-20T23:16:33.267Z,5.70
2022-11-20T23:19:07.255Z,5.70
2022-11-20T23:21:36.541Z,5.60
2022-11-20T23:24:04.349Z,5.20
2022-11-20T23:26:34.086Z,5.80
2022-11-20T23:29:01.678Z,5.70
2022-11-20T23:31:31.812Z,5.70
2022-11-20T23:33:59.135Z,5.80
2022-11-20T23:36:26.846Z,5.80
2022-11-20T23:41:21.261Z,5.60
2022-11-20T23:43:48.160Z,5.70
2022-11-20T23:46:16.721Z,5.80
2022-11-20T23:48:45.082Z,6.70
2022-11-20T23:51:12.675Z,5.60
2022-11-20T23:53:39.856Z,5.80
2022-11-20T23:56:06.990Z,5.70
2022-11-20T23:58:37.037Z,5.80
